Time;durP1;ratioP1;P1;durP2;ratioP2;P2;SDS_P1;SDS_P2;PMS_P1;PMS_P2;Temp;Humidity;BMP_temperature;BMP_pressure;BME280_temperature;BME280_humidity;BME280_pressure;Samples;Min_cycle;Max_cycle;Signal;HPM_P1;HPM_P2
2023/12/01 00:02:26;;;;;;;20.08;14.15;;;;;;;;;;5063447;28;20200;-69
2023/12/01 00:04:53;;;;;;;17.05;13.45;;;;;;;;;;5060926;28;20322;-69
2023/12/01 00:07:19;;;;;;;19.63;13.88;;;;;;;;;;5061373;28;20197;-69
2023/12/01 00:09:45;;;;;;;19.70;13.52;;;;;;;;;;5052456;28;20201;-69
2023/12/01 00:12:11;;;;;;;18.10;13.43;;;;;;;;;;5060775;28;20201;-69
2023/12/01 00:14:40;;;;;;;17.58;12.90;;;;;;;;;;5062873;28;20224;-69
2023/12/01 00:17:06;;;;;;;17.63;12.85;;;;;;;;;;5064414;28;20192;-69
2023/12/01 00:19:34;;;;;;;18.55;13.75;;;;;;;;;;5062732;28;20249;-69
2023/12/01 00:22:00;;;;;;;18.25;13.52;;;;;;;;;;5060685;28;20228;-69
2023/12/01 00:24:27;;;;;;;16.35;13.52;;;;;;;;;;5061148;28;20221;-69
2023/12/01 00:26:53;;;;;;;15.02;12.73;;;;;;;;;;5064164;28;20645;-69
2023/12/01 00:29:19;;;;;;;18.25;12.88;;;;;;;;;;5063997;28;20386;-69
2023/12/01 00:31:46;;;;;;;20.02;14.57;;;;;;;;;;5060837;28;20197;-69
2023/12/01 00:34:13;;;;;;;20.55;15.38;;;;;;;;;;5060190;28;20201;-69
2023/12/01 00:36:40;;;;;;;18.98;14.20;;;;;;;;;;5062482;28;20245;-69
2023/12/01 00:39:07;;;;;;;19.70;14.13;;;;;;;;;;5063544;28;20204;-69
2023/12/01 00:41:33;;;;;;;20.35;14.75;;;;;;;;;;5061994;28;20367;-69
2023/12/01 00:43:59;;;;;;;19.00;14.68;;;;;;;;;;5060053;28;20225;-69
2023/12/01 00:46:25;;;;;;;19.23;14.48;;;;;;;;;;5060189;28;20576;-69
2023/12/01 00:48:52;;;;;;;21.60;15.32;;;;;;;;;;5063302;28;20659;-69
2023/12/01 00:51:18;;;;;;;20.50;13.57;;;;;;;;;;5063564;28;20695;-70
2023/12/01 00:53:46;;;;;;;17.92;14.05;;;;;;;;;;5060586;28;20201;-69
2023/12/01 00:56:12;;;;;;;19.85;13.98;;;;;;;;;;5060163;28;20217;-69
2023/12/01 00:58:39;;;;;;;18.13;13.80;;;;;;;;;;5061951;28;20282;-69
2023/12/01 01:01:06;;;;;;;16.77;13.52;;;;;;;;;;5063310;28;20210;-69
2023/12/01 01:03:32;;;;;;;17.25;13.50;;;;;;;;;;5062678;28;20299;-69
2023/12/01 01:05:58;;;;;;;18.80;13.93;;;;;;;;;;5059973;28;20247;-69
2023/12/01 01:08:25;;;;;;;19.70;13.32;;;;;;;;;;5059675;28;20750;-69
2023/12/01 01:10:54;;;;;;;18.45;14.13;;;;;;;;;;5051130;28;20208;-69
2023/12/01 01:13:20;;;;;;;18.83;14.30;;;;;;;;;;5060051;28;20601;-69
2023/12/01 01:15:46;;;;;;;21.48;13.82;;;;;;;;;;5062490;28;20248;-69
2023/12/01 01:18:12;;;;;;;20.30;14.35;;;;;;;;;;5062986;28;20646;-70
2023/12/01 01:20:39;;;;;;;20.60;14.48;;;;;;;;;;5063205;28;20205;-70
2023/12/01 01:23:05;;;;;;;18.42;13.07;;;;;;;;;;5063547;28;20204;-70
2023/12/01 01:25:31;;;;;;;19.50;14.68;;;;;;;;;;5062607;28;20249;-70
2023/12/01 01:27:59;;;;;;;17.60;13.20;;;;;;;;;;5083216;22;20219;-69
2023/12/01 01:30:25;;;;;;;21.52;14.48;;;;;;;;;;5083048;28;20199;-69
2023/12/01 01:32:51;;;;;;;19.92;14.77;;;;;;;;;;5080052;28;20223;-69
2023/12/01 01:35:18;;;;;;;21.20;14.80;;;;;;;;;;5079788;28;20213;-69
2023/12/01 01:37:44;;;;;;;17.52;14.48;;;;;;;;;;5079554;28;20212;-69
2023/12/01 01:40:12;;;;;;;20.08;14.13;;;;;;;;;;5079281;28;20342;-69
2023/12/01 01:42:39;;;;;;;24.30;14.77;;;;;;;;;;5080756;28;20205;-69
2023/12/01 01:45:07;;;;;;;16.08;13.80;;;;;;;;;;5082668;28;20220;-69
2023/12/01 01:47:34;;;;;;;19.80;14.38;;;;;;;;;;5082570;28;20266;-69
2023/12/01 01:50:01;;;;;;;21.00;14.73;;;;;;;;;;5082676;28;20200;-69
2023/12/01 01:52:27;;;;;;;19.92;14.30;;;;;;;;;;5082495;28;20199;-69
2023/12/01 01:54:54;;;;;;;21.55;14.50;;;;;;;;;;5078897;28;20277;-69
2023/12/01 01:57:20;;;;;;;18.75;14.35;;;;;;;;;;5078973;28;20207;-69
2023/12/01 01:59:47;;;;;;;19.52;14.27;;;;;;;;;;5080976;28;20527;-69
2023/12/01 02:02:15;;;;;;;21.10;14.48;;;;;;;;;;5082213;28;20320;-69
2023/12/01 02:04:41;;;;;;;19.60;13.93;;;;;;;;;;5080713;28;20621;-69
2023/12/01 02:07:08;;;;;;;19.95;14.80;;;;;;;;;;5078862;28;20204;-69
2023/12/01 02:09:35;;;;;;;22.42;15.85;;;;;;;;;;5079160;28;20287;-69
2023/12/01 02:12:01;;;;;;;18.92;15.50;;;;;;;;;;5081993;28;20226;-68
2023/12/01 02:14:27;;;;;;;19.83;15.32;;;;;;;;;;5081869;28;20249;-68
2023/12/01 02:16:53;;;;;;;15.23;13.55;;;;;;;;;;5079038;28;20265;-68
2023/12/01 02:19:21;;;;;;;17.50;14.95;;;;;;;;;;5078381;28;20543;-69
2023/12/01 02:21:51;;;;;;;17.58;14.23;;;;;;;;;;5079753;28;20279;-69
2023/12/01 02:24:17;;;;;;;19.33;14.82;;;;;;;;;;5081559;28;20282;-69
2023/12/01 02:26:43;;;;;;;18.83;15.07;;;;;;;;;;5080157;28;20223;-69
2023/12/01 02:29:09;;;;;;;18.58;14.63;;;;;;;;;;5078279;28;20257;-69
2023/12/01 02:31:36;;;;;;;19.83;15.18;;;;;;;;;;5078458;28;20254;-69
2023/12/01 02:34:03;;;;;;;18.90;14.75;;;;;;;;;;5081613;28;20343;-69
2023/12/01 02:36:29;;;;;;;19.95;15.60;;;;;;;;;;5081550;28;20310;-70
2023/12/01 02:38:57;;;;;;;18.58;15.15;;;;;;;;;;5078516;28;20250;-69
2023/12/01 02:41:23;;;;;;;19.52;14.95;;;;;;;;;;5077938;28;20670;-69
2023/12/01 02:43:49;;;;;;;20.90;15.77;;;;;;;;;;5079799;28;20578;-69
2023/12/01 02:46:22;;;;;;;19.70;14.75;;;;;;;;;;5081380;28;20261;-69
2023/12/01 02:48:48;;;;;;;20.85;15.65;;;;;;;;;;5079261;28;20212;-69
2023/12/01 02:51:14;;;;;;;18.70;15.15;;;;;;;;;;5078023;28;20204;-69
2023/12/01 02:53:40;;;;;;;19.15;15.38;;;;;;;;;;5078499;28;20201;-69
2023/12/01 02:56:09;;;;;;;18.40;14.30;;;;;;;;;;5081190;28;20231;-69
2023/12/01 02:58:35;;;;;;;18.67;15.00;;;;;;;;;;5081128;28;20219;-70
2023/12/01 03:01:03;;;;;;;19.17;14.52;;;;;;;;;;5081194;28;20207;-70
2023/12/01 03:03:29;;;;;;;19.35;15.05;;;;;;;;;;5081099;28;20539;-70
2023/12/01 03:05:55;;;;;;;16.77;14.48;;;;;;;;;;5078518;28;20319;-70
2023/12/01 03:08:21;;;;;;;20.05;14.75;;;;;;;;;;5077708;28;20196;-70
2023/12/01 03:10:48;;;;;;;20.80;15.57;;;;;;;;;;5078885;28;20253;-69
2023/12/01 03:13:15;;;;;;;20.30;15.05;;;;;;;;;;5081253;28;20210;-68
2023/12/01 03:15:41;;;;;;;19.17;15.35;;;;;;;;;;5079881;28;20675;-68
2023/12/01 03:18:08;;;;;;;19.75;14.55;;;;;;;;;;5077375;28;20737;-68
2023/12/01 03:20:34;;;;;;;19.40;14.77;;;;;;;;;;5077492;28;20216;-69
2023/12/01 03:23:00;;;;;;;17.80;14.40;;;;;;;;;;5080715;28;20196;-68
2023/12/01 03:25:27;;;;;;;17.88;14.25;;;;;;;;;;5080046;28;20714;-68
2023/12/01 03:27:53;;;;;;;18.25;15.27;;;;;;;;;;5078252;28;20204;-68
2023/12/01 03:30:20;;;;;;;27.65;19.33;;;;;;;;;;5076302;28;20609;-68
2023/12/01 03:32:48;;;;;;;28.27;20.75;;;;;;;;;;5075480;28;20624;-68
2023/12/01 03:35:15;;;;;;;24.98;18.52;;;;;;;;;;5077806;28;20212;-68
2023/12/01 03:37:41;;;;;;;26.27;16.85;;;;;;;;;;5077262;28;20208;-69
2023/12/01 03:40:09;;;;;;;27.15;20.58;;;;;;;;;;5074320;28;20477;-68
2023/12/01 03:42:36;;;;;;;21.25;16.50;;;;;;;;;;5074298;28;20205;-68
2023/12/01 03:45:02;;;;;;;26.80;19.60;;;;;;;;;;5077630;28;20241;-68
2023/12/01 03:47:30;;;;;;;28.05;19.45;;;;;;;;;;5080208;28;20279;-68
2023/12/01 03:49:57;;;;;;;24.88;19.25;;;;;;;;;;5078111;28;20210;-68
2023/12/01 03:52:23;;;;;;;25.60;19.02;;;;;;;;;;5076878;28;20249;-68
2023/12/01 03:54:49;;;;;;;23.48;17.83;;;;;;;;;;5077886;28;20296;-68
2023/12/01 03:57:15;;;;;;;23.25;17.83;;;;;;;;;;5080510;28;20249;-68
2023/12/01 03:59:42;;;;;;;20.10;16.17;;;;;;;;;;5080057;28;20196;-68
2023/12/01 04:02:08;;;;;;;21.25;16.25;;;;;;;;;;5068788;28;20200;-68
2023/12/01 04:04:35;;;;;;;22.90;16.58;;;;;;;;;;5076768;28;20232;-68
2023/12/01 04:07:02;;;;;;;22.05;15.50;;;;;;;;;;5079343;28;20286;-68
2023/12/01 04:09:28;;;;;;;18.90;16.55;;;;;;;;;;5079991;28;20196;-68
2023/12/01 04:11:54;;;;;;;20.38;16.23;;;;;;;;;;5078507;28;20203;-68
2023/12/01 04:14:20;;;;;;;23.02;16.55;;;;;;;;;;5076400;28;20617;-69
2023/12/01 04:16:47;;;;;;;18.55;15.68;;;;;;;;;;5077586;28;20204;-69
2023/12/01 04:19:13;;;;;;;19.55;15.20;;;;;;;;;;5079958;28;20203;-69
2023/12/01 04:21:41;;;;;;;22.70;15.70;;;;;;;;;;5072625;28;20562;-69
2023/12/01 04:24:07;;;;;;;20.45;15.00;;;;;;;;;;5079924;28;20242;-69
2023/12/01 04:26:33;;;;;;;18.52;15.00;;;;;;;;;;5080015;28;20318;-69
2023/12/01 04:28:59;;;;;;;20.67;16.13;;;;;;;;;;5077566;28;20249;-69
2023/12/01 04:31:26;;;;;;;20.10;14.90;;;;;;;;;;5076366;28;20550;-69
2023/12/01 04:33:52;;;;;;;18.67;15.07;;;;;;;;;;5077547;28;20706;-69
2023/12/01 04:36:18;;;;;;;18.77;15.10;;;;;;;;;;5079926;28;20318;-69
2023/12/01 04:38:46;;;;;;;20.10;14.68;;;;;;;;;;5079893;28;20204;-69
2023/12/01 04:41:12;;;;;;;18.73;14.63;;;;;;;;;;5068275;28;20200;-69
2023/12/01 04:43:39;;;;;;;18.85;14.63;;;;;;;;;;5076735;28;20204;-69
2023/12/01 04:46:06;;;;;;;18.10;14.73;;;;;;;;;;5080534;28;20315;-69
2023/12/01 04:48:32;;;;;;;19.83;15.40;;;;;;;;;;5083489;28;20272;-69
2023/12/01 04:50:59;;;;;;;20.23;15.52;;;;;;;;;;5081702;28;20200;-69
2023/12/01 04:53:26;;;;;;;18.20;14.93;;;;;;;;;;5080112;28;20291;-69
2023/12/01 04:55:53;;;;;;;18.88;15.80;;;;;;;;;;5080457;28;20224;-69
2023/12/01 04:58:20;;;;;;;18.98;15.50;;;;;;;;;;5083039;28;20660;-69
2023/12/01 05:00:46;;;;;;;21.15;15.90;;;;;;;;;;5083523;28;20570;-69
2023/12/01 05:03:12;;;;;;;17.83;14.70;;;;;;;;;;5079781;28;20197;-69
2023/12/01 05:05:40;;;;;;;19.30;15.00;;;;;;;;;;5079714;28;20221;-69
2023/12/01 05:08:07;;;;;;;18.70;15.00;;;;;;;;;;5082217;28;20210;-69
2023/12/01 05:10:34;;;;;;;17.65;14.57;;;;;;;;;;5083182;28;20257;-69
2023/12/01 05:13:02;;;;;;;17.95;14.15;;;;;;;;;;5081431;28;20211;-69
2023/12/01 05:15:30;;;;;;;19.70;14.95;;;;;;;;;;5080117;28;20278;-69
2023/12/01 05:17:57;;;;;;;17.10;15.18;;;;;;;;;;5080912;28;20208;-69
2023/12/01 05:20:25;;;;;;;19.98;14.90;;;;;;;;;;5083136;28;20217;-69
2023/12/01 05:22:51;;;;;;;18.13;15.88;;;;;;;;;;5083256;28;20199;-70
2023/12/01 05:25:18;;;;;;;19.50;14.85;;;;;;;;;;5079751;28;20212;-70
2023/12/01 05:27:45;;;;;;;18.23;14.48;;;;;;;;;;5079955;28;20311;-69
2023/12/01 05:30:14;;;;;;;19.33;14.85;;;;;;;;;;5082958;28;20284;-69
2023/12/01 05:32:41;;;;;;;17.17;14.70;;;;;;;;;;5083349;28;20238;-70
2023/12/01 05:35:10;;;;;;;19.77;14.90;;;;;;;;;;5081382;28;20216;-70
2023/12/01 05:37:36;;;;;;;17.50;14.40;;;;;;;;;;5079709;28;20204;-70
2023/12/01 05:40:03;;;;;;;22.20;15.48;;;;;;;;;;5081245;28;20219;-69
2023/12/01 05:42:29;;;;;;;21.45;16.10;;;;;;;;;;5082953;28;20575;-69
2023/12/01 05:44:56;;;;;;;17.55;15.23;;;;;;;;;;5082148;28;20725;-69
2023/12/01 05:47:23;;;;;;;20.30;16.05;;;;;;;;;;5079469;28;20303;-69
2023/12/01 05:49:50;;;;;;;21.40;16.02;;;;;;;;;;5079530;28;20291;-69
2023/12/01 05:52:16;;;;;;;19.75;15.95;;;;;;;;;;5082632;28;20295;-70
2023/12/01 05:54:42;;;;;;;19.77;15.55;;;;;;;;;;5082879;28;20220;-70
2023/12/01 05:57:09;;;;;;;16.20;14.18;;;;;;;;;;5079231;28;20204;-70
2023/12/01 05:59:35;;;;;;;19.52;15.60;;;;;;;;;;5079299;28;20284;-70
2023/12/01 06:02:10;;;;;;;22.67;16.42;;;;;;;;;;5079975;28;20557;-70
2023/12/01 06:04:38;;;;;;;20.77;14.65;;;;;;;;;;5082603;28;20314;-70
2023/12/01 06:07:07;;;;;;;19.23;16.35;;;;;;;;;;5081077;28;20299;-70
2023/12/01 06:09:33;;;;;;;19.35;16.50;;;;;;;;;;5076486;28;20215;-70
2023/12/01 06:12:00;;;;;;;20.58;15.85;;;;;;;;;;5074190;28;20274;-70
2023/12/01 06:14:26;;;;;;;20.90;15.85;;;;;;;;;;5082494;28;20200;-70
2023/12/01 06:16:52;;;;;;;17.77;15.30;;;;;;;;;;5082304;28;20252;-70
2023/12/01 06:19:20;;;;;;;18.20;15.63;;;;;;;;;;5078502;28;20656;-71
2023/12/01 06:21:47;;;;;;;21.40;16.17;;;;;;;;;;5079015;28;20279;-70
2023/12/01 06:24:13;;;;;;;20.85;14.65;;;;;;;;;;5078978;28;20249;-70
2023/12/01 06:26:40;;;;;;;19.55;16.50;;;;;;;;;;5079000;28;20277;-70
2023/12/01 06:29:06;;;;;;;18.70;15.27;;;;;;;;;;5079763;28;20200;-70
2023/12/01 06:31:32;;;;;;;21.23;15.85;;;;;;;;;;5081741;28;20195;-65
2023/12/01 06:33:59;;;;;;;22.52;17.27;;;;;;;;;;5085575;28;20204;-60
2023/12/01 06:36:25;;;;;;;19.48;16.27;;;;;;;;;;5085829;28;20232;-60
2023/12/01 06:38:53;;;;;;;19.83;17.38;;;;;;;;;;5085607;28;20203;-60
2023/12/01 06:41:19;;;;;;;20.75;16.30;;;;;;;;;;5081966;28;20204;-60
2023/12/01 06:43:45;;;;;;;20.67;16.58;;;;;;;;;;5082441;28;20664;-60
2023/12/01 06:46:11;;;;;;;21.60;16.42;;;;;;;;;;5084195;28;20224;-60
2023/12/01 06:48:38;;;;;;;16.77;14.98;;;;;;;;;;5086145;28;20196;-60
2023/12/01 06:51:04;;;;;;;18.25;16.23;;;;;;;;;;5085016;28;20299;-60
2023/12/01 06:53:30;;;;;;;19.30;15.82;;;;;;;;;;5082703;28;20204;-60
2023/12/01 06:55:58;;;;;;;17.33;15.35;;;;;;;;;;5082285;28;20224;-60
2023/12/01 06:58:24;;;;;;;21.42;15.80;;;;;;;;;;5082984;28;20192;-60
2023/12/01 07:00:56;;;;;;;16.95;14.50;;;;;;;;;;5082609;28;20232;-60
2023/12/01 07:03:22;;;;;;;16.67;14.55;;;;;;;;;;5086887;28;20218;-60
2023/12/01 07:05:51;;;;;;;16.13;14.50;;;;;;;;;;5086867;28;20722;-60
2023/12/01 07:08:18;;;;;;;15.82;14.13;;;;;;;;;;5081459;28;20324;-60
2023/12/01 07:10:45;;;;;;;16.95;15.00;;;;;;;;;;5078524;28;20212;-60
2023/12/01 07:13:13;;;;;;;18.83;13.82;;;;;;;;;;5082643;28;20261;-60
2023/12/01 07:15:39;;;;;;;16.02;13.73;;;;;;;;;;5080201;28;20545;-60
2023/12/01 07:18:06;;;;;;;15.52;13.90;;;;;;;;;;5081175;28;20630;-60
2023/12/01 07:20:33;;;;;;;18.27;13.57;;;;;;;;;;5083871;28;20214;-60
2023/12/01 07:23:00;;;;;;;19.27;15.00;;;;;;;;;;5083641;28;20696;-60
2023/12/01 07:25:26;;;;;;;16.13;13.82;;;;;;;;;;5072266;28;20773;-60
2023/12/01 07:27:53;;;;;;;15.65;13.50;;;;;;;;;;5080042;28;20542;-60
2023/12/01 07:30:21;;;;;;;16.95;13.95;;;;;;;;;;5082700;28;20204;-60
2023/12/01 07:32:47;;;;;;;15.93;14.05;;;;;;;;;;5084003;28;20230;-60
2023/12/01 07:35:14;;;;;;;18.27;14.30;;;;;;;;;;5082883;28;20241;-60
2023/12/01 07:37:42;;;;;;;16.38;12.75;;;;;;;;;;5080648;28;20200;-60
2023/12/01 07:40:09;;;;;;;16.17;12.38;;;;;;;;;;5082148;28;20205;-60
2023/12/01 07:42:35;;;;;;;14.45;11.88;;;;;;;;;;5083953;28;20688;-60
2023/12/01 07:45:01;;;;;;;14.63;12.35;;;;;;;;;;5083641;28;20318;-60
2023/12/01 07:47:29;;;;;;;15.05;12.82;;;;;;;;;;5058764;28;20211;-60
2023/12/01 07:49:55;;;;;;;14.93;11.85;;;;;;;;;;5083926;28;20249;-60
2023/12/01 07:52:21;;;;;;;14.40;12.25;;;;;;;;;;5083363;28;20204;-60
2023/12/01 07:54:48;;;;;;;15.75;13.25;;;;;;;;;;5083459;28;20220;-60
2023/12/01 07:57:14;;;;;;;17.60;14.55;;;;;;;;;;5081624;28;20200;-60
2023/12/01 07:59:41;;;;;;;19.98;16.65;;;;;;;;;;5079564;28;20196;-60
2023/12/01 08:02:09;;;;;;;18.45;15.43;;;;;;;;;;5080584;28;20265;-60
2023/12/01 08:04:36;;;;;;;18.42;15.85;;;;;;;;;;5077373;28;20274;-60
2023/12/01 08:07:03;;;;;;;19.40;16.48;;;;;;;;;;5078453;28;20216;-60
2023/12/01 08:09:31;;;;;;;16.40;14.70;;;;;;;;;;5070005;28;20295;-60
2023/12/01 08:11:58;;;;;;;15.27;13.68;;;;;;;;;;5077745;28;20256;-60
2023/12/01 08:14:25;;;;;;;17.45;15.55;;;;;;;;;;5080496;28;20304;-60
2023/12/01 08:16:51;;;;;;;14.85;13.27;;;;;;;;;;5081971;28;20192;-60
2023/12/01 08:19:17;;;;;;;14.68;12.48;;;;;;;;;;5082580;28;20639;-60
2023/12/01 08:21:45;;;;;;;15.88;12.70;;;;;;;;;;5083505;28;20245;-60
2023/12/01 08:24:11;;;;;;;14.82;13.23;;;;;;;;;;5085872;28;20199;-60
2023/12/01 08:26:38;;;;;;;13.10;11.75;;;;;;;;;;5088116;28;20293;-60
2023/12/01 08:29:04;;;;;;;15.35;12.73;;;;;;;;;;5088190;28;20230;-60
2023/12/01 08:31:31;;;;;;;13.18;11.80;;;;;;;;;;5084537;28;20200;-60
2023/12/01 08:33:56;;;;;;;13.60;12.23;;;;;;;;;;5084803;28;20232;-60
2023/12/01 08:36:22;;;;;;;14.48;12.25;;;;;;;;;;5086930;28;20296;-60
2023/12/01 08:38:50;;;;;;;14.07;12.23;;;;;;;;;;5088187;28;20196;-60
2023/12/01 08:41:16;;;;;;;13.80;12.40;;;;;;;;;;5086361;28;20231;-60
2023/12/01 08:43:43;;;;;;;16.63;13.68;;;;;;;;;;5083803;28;20614;-60
2023/12/01 08:46:09;;;;;;;14.70;12.98;;;;;;;;;;5084902;28;20224;-60
2023/12/01 08:48:35;;;;;;;16.52;13.38;;;;;;;;;;5088252;28;20215;-60
2023/12/01 08:51:02;;;;;;;15.60;13.73;;;;;;;;;;5088303;28;20690;-60
2023/12/01 08:53:28;;;;;;;15.50;13.55;;;;;;;;;;5085130;28;20571;-60
2023/12/01 08:55:56;;;;;;;16.30;13.77;;;;;;;;;;5084752;28;20224;-60
2023/12/01 08:58:24;;;;;;;18.35;13.45;;;;;;;;;;5086281;28;20200;-60
2023/12/01 09:00:51;;;;;;;16.17;13.25;;;;;;;;;;5088018;28;20286;-60
2023/12/01 09:03:17;;;;;;;16.85;14.35;;;;;;;;;;5086104;28;20552;-60
2023/12/01 09:05:43;;;;;;;17.50;13.82;;;;;;;;;;5084461;28;20625;-60
2023/12/01 09:08:09;;;;;;;16.58;13.52;;;;;;;;;;5084183;28;20882;-59
2023/12/01 09:10:35;;;;;;;15.88;13.10;;;;;;;;;;5084908;28;20676;-59
2023/12/01 09:13:03;;;;;;;14.82;13.23;;;;;;;;;;5085045;28;20196;-59
2023/12/01 09:15:29;;;;;;;17.13;12.80;;;;;;;;;;5093514;28;20224;-60
2023/12/01 09:17:56;;;;;;;16.02;13.30;;;;;;;;;;5085516;28;20283;-60
2023/12/01 09:20:22;;;;;;;16.15;13.68;;;;;;;;;;5086924;28;20201;-60
2023/12/01 09:22:48;;;;;;;14.60;13.10;;;;;;;;;;5088933;28;20273;-61
2023/12/01 09:25:15;;;;;;;14.68;12.80;;;;;;;;;;5089110;28;20213;-60
2023/12/01 09:27:41;;;;;;;17.48;12.25;;;;;;;;;;5089253;28;20272;-60
2023/12/01 09:30:13;;;;;;;13.65;12.35;;;;;;;;;;5089318;28;20286;-60
2023/12/01 09:32:40;;;;;;;15.23;12.45;;;;;;;;;;5078581;28;20343;-60
2023/12/01 09:35:06;;;;;;;14.75;13.27;;;;;;;;;;5086169;28;20286;-60
2023/12/01 09:37:33;;;;;;;15.60;12.93;;;;;;;;;;5086249;28;20208;-60
2023/12/01 09:39:59;;;;;;;18.58;13.77;;;;;;;;;;5085948;28;20193;-60
2023/12/01 09:42:25;;;;;;;15.60;13.93;;;;;;;;;;5086019;28;20208;-60
2023/12/01 09:44:53;;;;;;;14.55;12.77;;;;;;;;;;5087063;28;20220;-60
2023/12/01 09:47:22;;;;;;;15.30;12.88;;;;;;;;;;5086087;28;20223;-60
2023/12/01 09:49:49;;;;;;;12.65;11.40;;;;;;;;;;5083986;28;20196;-60
2023/12/01 09:52:15;;;;;;;14.60;11.90;;;;;;;;;;5084150;28;20201;-59
2023/12/01 09:54:42;;;;;;;13.23;11.90;;;;;;;;;;5087749;28;20215;-59
2023/12/01 09:57:08;;;;;;;15.85;12.57;;;;;;;;;;5087920;28;20223;-59
2023/12/01 09:59:35;;;;;;;12.73;11.25;;;;;;;;;;5085230;28;20617;-59
2023/12/01 10:02:02;;;;;;;14.25;12.45;;;;;;;;;;5086129;28;20264;-60
2023/12/01 10:04:30;;;;;;;15.48;11.45;;;;;;;;;;5087634;28;20208;-60
2023/12/01 10:06:57;;;;;;;14.60;11.48;;;;;;;;;;5090383;28;20219;-60
2023/12/01 10:09:26;;;;;;;13.88;12.45;;;;;;;;;;5089403;28;20249;-60
2023/12/01 10:12:04;;;;;;;13.93;12.52;;;;;;;;;;5086679;28;20205;-60
2023/12/01 10:14:32;;;;;;;15.95;13.23;;;;;;;;;;5087608;28;20306;-60
2023/12/01 10:17:01;;;;;;;13.38;12.13;;;;;;;;;;5087520;28;20268;-60
2023/12/01 10:19:27;;;;;;;13.80;11.50;;;;;;;;;;5088068;28;20290;-60
2023/12/01 10:21:55;;;;;;;14.02;11.90;;;;;;;;;;5089056;28;20246;-60
2023/12/01 10:24:22;;;;;;;15.82;12.05;;;;;;;;;;5087622;28;20256;-59
2023/12/01 10:26:49;;;;;;;14.35;11.98;;;;;;;;;;5083821;28;20637;-60
2023/12/01 10:29:29;;;;;;;14.38;12.57;;;;;;;;;;5083817;28;20208;-60
2023/12/01 10:31:56;;;;;;;14.40;12.93;;;;;;;;;;5078385;28;20232;-59
2023/12/01 10:34:22;;;;;;;13.60;12.20;;;;;;;;;;5085798;28;20200;-60
2023/12/01 10:36:49;;;;;;;14.90;13.25;;;;;;;;;;5087967;28;20245;-60
2023/12/01 10:39:17;;;;;;;13.80;12.50;;;;;;;;;;5087537;28;20572;-61
2023/12/01 10:41:44;;;;;;;13.63;12.23;;;;;;;;;;5075702;28;20207;-61
2023/12/01 10:44:11;;;;;;;14.20;12.80;;;;;;;;;;5082242;28;20611;-61
2023/12/01 10:46:38;;;;;;;14.80;13.30;;;;;;;;;;5085653;28;20232;-61
2023/12/01 10:49:06;;;;;;;18.33;13.60;;;;;;;;;;5086381;28;20208;-60
2023/12/01 10:51:33;;;;;;;15.60;13.48;;;;;;;;;;5084623;28;20218;-60
2023/12/01 10:54:00;;;;;;;14.60;12.70;;;;;;;;;;5088499;28;20204;-59
2023/12/01 10:56:30;;;;;;;14.65;13.18;;;;;;;;;;5083290;28;20282;-59
2023/12/01 10:58:57;;;;;;;15.05;12.55;;;;;;;;;;5081407;28;20188;-59
2023/12/01 11:01:24;;;;;;;15.98;14.18;;;;;;;;;;5082901;28;20549;-59
2023/12/01 11:03:52;;;;;;;15.68;13.98;;;;;;;;;;5084848;28;20196;-60
2023/12/01 11:06:23;;;;;;;17.42;13.90;;;;;;;;;;5084547;28;20283;-60
2023/12/01 11:08:52;;;;;;;16.73;13.50;;;;;;;;;;5072356;28;20650;-60
2023/12/01 11:11:22;;;;;;;17.38;13.93;;;;;;;;;;5088854;28;20256;-60
2023/12/01 11:13:58;;;;;;;13.85;12.05;;;;;;;;;;5073119;28;20208;-60
2023/12/01 11:16:25;;;;;;;11.55;10.35;;;;;;;;;;5089726;28;20272;-60
2023/12/01 11:18:51;;;;;;;11.07;9.98;;;;;;;;;;5083764;28;20224;-60
2023/12/01 11:21:18;;;;;;;10.82;9.80;;;;;;;;;;5083368;28;20656;-60
2023/12/01 11:23:44;;;;;;;13.35;10.35;;;;;;;;;;5084979;28;20864;-60
2023/12/01 11:26:11;;;;;;;12.80;11.02;;;;;;;;;;5084244;28;20633;-60
2023/12/01 11:28:56;;;;;;;12.20;10.90;;;;;;;;;;5083012;28;20238;-60
2023/12/01 11:31:34;;;;;;;10.85;9.70;;;;;;;;;;5081696;28;20196;-60
2023/12/01 11:34:01;;;;;;;9.50;8.60;;;;;;;;;;5083472;28;20207;-61
2023/12/01 11:36:29;;;;;;;10.50;9.48;;;;;;;;;;5071352;28;20319;-61
2023/12/01 11:39:16;;;;;;;12.55;10.75;;;;;;;;;;5084194;28;20292;-61
2023/12/01 11:41:44;;;;;;;12.77;10.57;;;;;;;;;;5079807;28;20204;-61
2023/12/01 11:44:11;;;;;;;10.68;9.65;;;;;;;;;;5070963;28;20232;-61
2023/12/01 11:46:39;;;;;;;10.25;9.35;;;;;;;;;;5082639;28;20255;-60
2023/12/01 11:49:05;;;;;;;10.15;9.25;;;;;;;;;;5083733;28;20250;-62
2023/12/01 11:51:31;;;;;;;10.38;9.38;;;;;;;;;;5078101;28;20704;-61
2023/12/01 11:53:58;;;;;;;13.93;10.55;;;;;;;;;;5081032;28;20229;-61
2023/12/01 11:56:25;;;;;;;11.18;10.07;;;;;;;;;;5078317;28;20228;-63
2023/12/01 11:58:52;;;;;;;11.75;10.65;;;;;;;;;;5080362;28;20703;-63
2023/12/01 12:01:19;;;;;;;11.65;10.45;;;;;;;;;;5081841;28;20215;-63
2023/12/01 12:03:47;;;;;;;11.40;10.20;;;;;;;;;;5076902;28;20208;-62
2023/12/01 12:06:15;;;;;;;11.90;10.70;;;;;;;;;;5089523;28;20231;-63
2023/12/01 12:08:42;;;;;;;13.73;11.55;;;;;;;;;;5085402;28;20613;-62
2023/12/01 12:11:11;;;;;;;15.68;13.18;;;;;;;;;;5082059;28;20280;-61
2023/12/01 12:13:38;;;;;;;13.55;12.13;;;;;;;;;;5081471;28;20214;-60
2023/12/01 12:16:04;;;;;;;12.77;11.48;;;;;;;;;;5080828;28;20270;-59
2023/12/01 12:18:31;;;;;;;13.38;12.00;;;;;;;;;;5081603;28;20265;-61
2023/12/01 12:21:02;;;;;;;12.95;11.65;;;;;;;;;;5082250;28;20208;-60
2023/12/01 12:23:28;;;;;;;13.50;12.07;;;;;;;;;;5082641;28;20321;-62
2023/12/01 12:25:55;;;;;;;14.13;12.43;;;;;;;;;;5084346;28;20220;-61
2023/12/01 12:28:21;;;;;;;13.68;12.38;;;;;;;;;;5081709;28;20311;-59
2023/12/01 12:30:48;;;;;;;13.73;12.32;;;;;;;;;;5080984;28;20208;-59
2023/12/01 12:33:15;;;;;;;14.18;12.77;;;;;;;;;;5090714;28;20207;-62
2023/12/01 12:35:41;;;;;;;14.60;13.05;;;;;;;;;;5088175;28;20226;-62
2023/12/01 12:38:09;;;;;;;14.50;13.00;;;;;;;;;;5082793;28;20196;-63
2023/12/01 12:40:35;;;;;;;13.60;12.32;;;;;;;;;;5084650;28;20633;-62
2023/12/01 12:43:02;;;;;;;14.18;12.77;;;;;;;;;;5073822;28;20213;-62
2023/12/01 12:45:29;;;;;;;15.95;13.55;;;;;;;;;;5061332;28;20228;-61
2023/12/01 12:48:03;;;;;;;14.13;12.70;;;;;;;;;;5084324;28;21260;-61
2023/12/01 12:50:30;;;;;;;15.10;12.82;;;;;;;;;;5084254;28;20227;-60
2023/12/01 12:52:56;;;;;;;20.55;17.23;;;;;;;;;;5072416;28;20232;-60
2023/12/01 12:55:27;;;;;;;19.88;17.05;;;;;;;;;;5081113;28;20220;-61
2023/12/01 12:57:54;;;;;;;17.60;15.60;;;;;;;;;;5076549;28;20662;-59
2023/12/01 13:00:20;;;;;;;19.48;15.38;;;;;;;;;;5086707;28;20879;-59
2023/12/01 13:02:47;;;;;;;17.25;15.02;;;;;;;;;;5083922;28;20196;-59
2023/12/01 13:05:13;;;;;;;17.15;15.38;;;;;;;;;;5081971;28;20228;-58
2023/12/01 13:07:40;;;;;;;16.85;15.05;;;;;;;;;;5080037;28;20234;-59
2023/12/01 13:10:09;;;;;;;16.30;14.60;;;;;;;;;;5078220;28;20200;-59
2023/12/01 13:12:37;;;;;;;16.40;14.63;;;;;;;;;;5079635;28;20208;-59
2023/12/01 13:15:03;;;;;;;16.33;14.55;;;;;;;;;;5082209;28;20699;-59
2023/12/01 13:17:30;;;;;;;16.73;14.73;;;;;;;;;;5081952;28;20261;-58
2023/12/01 13:19:57;;;;;;;16.95;15.00;;;;;;;;;;5083541;28;20348;-60
2023/12/01 13:22:23;;;;;;;15.43;13.82;;;;;;;;;;5081182;28;20205;-59
2023/12/01 13:24:49;;;;;;;16.52;14.82;;;;;;;;;;5086439;28;20231;-59
2023/12/01 13:27:16;;;;;;;16.67;14.98;;;;;;;;;;5082184;28;20208;-59
2023/12/01 13:29:44;;;;;;;16.55;14.35;;;;;;;;;;5085844;28;20228;-59
2023/12/01 13:32:10;;;;;;;18.50;15.23;;;;;;;;;;5087816;28;20257;-59
2023/12/01 13:34:37;;;;;;;17.63;15.27;;;;;;;;;;5087605;28;20422;-59
2023/12/01 13:37:03;;;;;;;17.73;15.55;;;;;;;;;;5085409;28;20288;-60
2023/12/01 13:39:30;;;;;;;19.90;15.55;;;;;;;;;;5085082;28;20738;-59
2023/12/01 13:41:56;;;;;;;18.45;15.90;;;;;;;;;;5087708;28;20565;-59
2023/12/01 13:44:22;;;;;;;19.27;16.00;;;;;;;;;;5088141;28;20195;-58
2023/12/01 13:46:50;;;;;;;21.38;17.77;;;;;;;;;;5085554;28;20207;-59
2023/12/01 13:49:17;;;;;;;19.67;16.52;;;;;;;;;;5082692;28;20220;-59
2023/12/01 13:51:44;;;;;;;21.27;18.23;;;;;;;;;;5084915;28;20215;-59
2023/12/01 13:54:11;;;;;;;20.83;16.90;;;;;;;;;;5082950;28;20284;-59
2023/12/01 13:56:37;;;;;;;19.88;16.77;;;;;;;;;;5084310;28;20252;-59
2023/12/01 13:59:03;;;;;;;18.45;16.15;;;;;;;;;;5087601;28;20245;-59
2023/12/01 14:01:29;;;;;;;19.02;16.70;;;;;;;;;;5087176;28;20204;-58
2023/12/01 14:03:57;;;;;;;18.88;16.67;;;;;;;;;;5084161;28;20208;-58
2023/12/01 14:06:23;;;;;;;20.70;17.98;;;;;;;;;;5082176;28;20292;-59
2023/12/01 14:08:49;;;;;;;20.05;17.77;;;;;;;;;;5085531;28;20216;-59
2023/12/01 14:11:16;;;;;;;17.48;15.65;;;;;;;;;;5088904;28;20663;-59
2023/12/01 14:13:42;;;;;;;20.77;16.13;;;;;;;;;;5086717;28;20203;-61
2023/12/01 14:16:09;;;;;;;24.13;16.42;;;;;;;;;;5087686;28;20215;-60
2023/12/01 14:18:36;;;;;;;24.65;18.77;;;;;;;;;;5085952;28;20261;-59